Main page
METAR-TAF:

METAR-TAF

Airports :

Ancona, Italy

Falconara Airport

latitude: 43-37N, longitude: 013-22E, elevation: 12 m

Current weather observation

The report was made 20 minutes ago, at 23:50 UTC
Wind 4 kt from the South/Southeast
Temperature 12°C
Humidity 88%
Pressure 1017 hPa
Visibility 10 km or more
no clouds below 1500 m and no cumulonimbus

METAR: LIPY 222350Z 16004KT CAVOK 12/10 Q1017

Time: 02:10 (00:10 UTC)

Forecast

The report was made 1 hour and 10 minutes ago, at 23:00 UTC
Forecast valid from 23 at 00 UTC to 23 at 24 UTC
Wind 6 kt from the Southwest
Visibility 10 km or more
no clouds below 1500 m and no cumulonimbus
Becoming
from 23 at 10 UTC to 23 at 12 UTC
Wind 10 kt from the East/Northeast

TAF: LIPY 222300Z 2300/2324 23006KT CAVOK BECMG 2310/2312 06010KT

Weather observations and forecasts of more than 4000 airports (METAR and TAF reports).

The available stations are represented by yellow and red dots on the map.

Hover mouse over dot to see the name of the station.

Then click to see weather observations and forecasts.

To change the map : click on the green buttons with a black cross to zoom in, on the green button with a dash to zoom out, or on the green arrows for adjacent maps.


METAR-TAF: